sensor_id;sensor_type;location;lat;lon;timestamp;P1;durP1;ratioP1;P2;durP2;ratioP2
50803;SDS011;37205;51.434;6.756;2023-12-14T00:00:43;40.45;;;21.92;;
50803;SDS011;37205;51.434;6.756;2023-12-14T00:03:08;32.22;;;18.38;;
50803;SDS011;37205;51.434;6.756;2023-12-14T00:05:34;31.15;;;18.17;;
50803;SDS011;37205;51.434;6.756;2023-12-14T00:08:00;29.58;;;17.38;;
50803;SDS011;37205;51.434;6.756;2023-12-14T00:10:25;26.65;;;16.25;;
50803;SDS011;37205;51.434;6.756;2023-12-14T00:12:51;23.05;;;15.32;;
50803;SDS011;37205;51.434;6.756;2023-12-14T00:15:18;24.08;;;15.60;;
50803;SDS011;37205;51.434;6.756;2023-12-14T00:17:43;24.75;;;14.30;;
50803;SDS011;37205;51.434;6.756;2023-12-14T00:20:09;22.15;;;14.10;;
50803;SDS011;37205;51.434;6.756;2023-12-14T00:22:35;23.23;;;13.15;;
50803;SDS011;37205;51.434;6.756;2023-12-14T00:25:02;21.10;;;13.30;;
50803;SDS011;37205;51.434;6.756;2023-12-14T00:27:29;18.13;;;11.75;;
50803;SDS011;37205;51.434;6.756;2023-12-14T00:29:54;19.92;;;13.45;;
50803;SDS011;37205;51.434;6.756;2023-12-14T00:32:20;18.20;;;12.68;;
50803;SDS011;37205;51.434;6.756;2023-12-14T00:34:45;17.77;;;11.73;;
50803;SDS011;37205;51.434;6.756;2023-12-14T00:37:11;15.80;;;10.73;;
50803;SDS011;37205;51.434;6.756;2023-12-14T00:39:36;16.48;;;11.35;;
50803;SDS011;37205;51.434;6.756;2023-12-14T00:42:02;17.00;;;11.40;;
50803;SDS011;37205;51.434;6.756;2023-12-14T00:44:28;14.55;;;11.07;;
50803;SDS011;37205;51.434;6.756;2023-12-14T00:46:54;17.67;;;13.10;;
50803;SDS011;37205;51.434;6.756;2023-12-14T00:49:19;20.20;;;14.40;;
50803;SDS011;37205;51.434;6.756;2023-12-14T00:51:45;18.25;;;13.32;;
50803;SDS011;37205;51.434;6.756;2023-12-14T00:54:10;19.98;;;14.82;;
50803;SDS011;37205;51.434;6.756;2023-12-14T00:56:36;17.05;;;12.77;;
50803;SDS011;37205;51.434;6.756;2023-12-14T00:59:01;16.50;;;11.77;;
50803;SDS011;37205;51.434;6.756;2023-12-14T01:01:27;20.33;;;13.32;;
50803;SDS011;37205;51.434;6.756;2023-12-14T01:03:53;18.30;;;13.35;;
50803;SDS011;37205;51.434;6.756;2023-12-14T01:06:18;20.02;;;14.15;;
50803;SDS011;37205;51.434;6.756;2023-12-14T01:08:44;17.00;;;12.95;;
50803;SDS011;37205;51.434;6.756;2023-12-14T01:11:09;17.45;;;13.02;;
50803;SDS011;37205;51.434;6.756;2023-12-14T01:13:35;16.90;;;12.40;;
50803;SDS011;37205;51.434;6.756;2023-12-14T01:16:01;16.42;;;12.52;;
50803;SDS011;37205;51.434;6.756;2023-12-14T01:18:27;15.52;;;11.35;;
50803;SDS011;37205;51.434;6.756;2023-12-14T01:20:52;16.33;;;11.07;;
50803;SDS011;37205;51.434;6.756;2023-12-14T01:23:18;13.48;;;10.02;;
50803;SDS011;37205;51.434;6.756;2023-12-14T01:25:43;14.02;;;11.00;;
50803;SDS011;37205;51.434;6.756;2023-12-14T01:28:09;17.23;;;12.48;;
50803;SDS011;37205;51.434;6.756;2023-12-14T01:30:34;15.68;;;12.30;;
50803;SDS011;37205;51.434;6.756;2023-12-14T01:33:00;18.85;;;12.27;;
50803;SDS011;37205;51.434;6.756;2023-12-14T01:35:26;16.95;;;12.02;;
50803;SDS011;37205;51.434;6.756;2023-12-14T01:37:51;17.92;;;12.95;;
50803;SDS011;37205;51.434;6.756;2023-12-14T01:40:18;18.13;;;13.20;;
50803;SDS011;37205;51.434;6.756;2023-12-14T01:42:45;20.73;;;13.25;;
50803;SDS011;37205;51.434;6.756;2023-12-14T01:45:10;20.85;;;13.98;;
50803;SDS011;37205;51.434;6.756;2023-12-14T01:47:38;19.17;;;14.35;;
50803;SDS011;37205;51.434;6.756;2023-12-14T01:50:03;21.63;;;15.25;;
50803;SDS011;37205;51.434;6.756;2023-12-14T01:52:29;22.52;;;16.40;;
50803;SDS011;37205;51.434;6.756;2023-12-14T01:54:55;24.77;;;16.83;;
50803;SDS011;37205;51.434;6.756;2023-12-14T01:57:23;22.20;;;15.55;;
50803;SDS011;37205;51.434;6.756;2023-12-14T01:59:49;21.98;;;15.73;;
50803;SDS011;37205;51.434;6.756;2023-12-14T02:02:15;23.58;;;16.27;;
50803;SDS011;37205;51.434;6.756;2023-12-14T02:04:40;23.88;;;15.25;;
50803;SDS011;37205;51.434;6.756;2023-12-14T02:07:06;23.10;;;16.23;;
50803;SDS011;37205;51.434;6.756;2023-12-14T02:09:31;24.92;;;17.15;;
50803;SDS011;37205;51.434;6.756;2023-12-14T02:11:57;27.88;;;18.60;;
50803;SDS011;37205;51.434;6.756;2023-12-14T02:14:22;28.92;;;19.83;;
50803;SDS011;37205;51.434;6.756;2023-12-14T02:16:48;28.20;;;18.80;;
50803;SDS011;37205;51.434;6.756;2023-12-14T02:19:14;28.83;;;19.35;;
50803;SDS011;37205;51.434;6.756;2023-12-14T02:21:40;30.45;;;20.02;;
50803;SDS011;37205;51.434;6.756;2023-12-14T02:24:05;32.88;;;20.48;;
50803;SDS011;37205;51.434;6.756;2023-12-14T02:26:31;34.55;;;22.60;;
50803;SDS011;37205;51.434;6.756;2023-12-14T02:28:56;39.30;;;23.67;;
50803;SDS011;37205;51.434;6.756;2023-12-14T02:31:22;36.38;;;23.73;;
50803;SDS011;37205;51.434;6.756;2023-12-14T02:33:48;39.50;;;24.10;;
50803;SDS011;37205;51.434;6.756;2023-12-14T02:36:14;38.53;;;23.08;;
50803;SDS011;37205;51.434;6.756;2023-12-14T02:38:39;36.65;;;23.08;;
50803;SDS011;37205;51.434;6.756;2023-12-14T02:41:05;39.42;;;23.25;;
50803;SDS011;37205;51.434;6.756;2023-12-14T02:43:30;37.50;;;24.20;;
50803;SDS011;37205;51.434;6.756;2023-12-14T02:45:56;33.53;;;21.27;;
50803;SDS011;37205;51.434;6.756;2023-12-14T02:48:26;31.50;;;20.40;;
50803;SDS011;37205;51.434;6.756;2023-12-14T02:50:53;30.38;;;19.08;;
50803;SDS011;37205;51.434;6.756;2023-12-14T02:53:19;33.10;;;20.42;;
50803;SDS011;37205;51.434;6.756;2023-12-14T02:55:45;29.70;;;18.55;;
50803;SDS011;37205;51.434;6.756;2023-12-14T02:58:10;30.23;;;17.67;;
50803;SDS011;37205;51.434;6.756;2023-12-14T03:00:36;27.83;;;17.05;;
50803;SDS011;37205;51.434;6.756;2023-12-14T03:03:03;25.45;;;15.07;;
50803;SDS011;37205;51.434;6.756;2023-12-14T03:05:29;28.02;;;16.92;;
50803;SDS011;37205;51.434;6.756;2023-12-14T03:07:55;27.73;;;16.55;;
50803;SDS011;37205;51.434;6.756;2023-12-14T03:10:20;33.95;;;18.77;;
50803;SDS011;37205;51.434;6.756;2023-12-14T03:12:46;29.35;;;17.38;;
50803;SDS011;37205;51.434;6.756;2023-12-14T03:15:12;31.13;;;18.42;;
50803;SDS011;37205;51.434;6.756;2023-12-14T03:17:37;31.30;;;18.92;;
50803;SDS011;37205;51.434;6.756;2023-12-14T03:20:03;33.00;;;18.90;;
50803;SDS011;37205;51.434;6.756;2023-12-14T03:22:30;31.88;;;18.35;;
50803;SDS011;37205;51.434;6.756;2023-12-14T03:24:56;30.73;;;20.27;;
50803;SDS011;37205;51.434;6.756;2023-12-14T03:27:21;30.45;;;18.88;;
50803;SDS011;37205;51.434;6.756;2023-12-14T03:29:48;32.33;;;18.83;;
50803;SDS011;37205;51.434;6.756;2023-12-14T03:32:13;32.53;;;20.75;;
50803;SDS011;37205;51.434;6.756;2023-12-14T03:34:39;36.78;;;21.05;;
50803;SDS011;37205;51.434;6.756;2023-12-14T03:37:05;33.05;;;19.85;;
50803;SDS011;37205;51.434;6.756;2023-12-14T03:39:31;34.63;;;20.00;;
50803;SDS011;37205;51.434;6.756;2023-12-14T03:41:57;36.65;;;22.20;;
50803;SDS011;37205;51.434;6.756;2023-12-14T03:44:22;37.17;;;22.40;;
50803;SDS011;37205;51.434;6.756;2023-12-14T03:46:49;37.13;;;22.73;;
50803;SDS011;37205;51.434;6.756;2023-12-14T03:49:15;45.42;;;25.90;;
50803;SDS011;37205;51.434;6.756;2023-12-14T03:51:40;47.90;;;26.25;;
50803;SDS011;37205;51.434;6.756;2023-12-14T03:54:06;50.50;;;25.63;;
50803;SDS011;37205;51.434;6.756;2023-12-14T03:56:31;46.53;;;25.25;;
50803;SDS011;37205;51.434;6.756;2023-12-14T03:58:57;52.42;;;26.48;;
50803;SDS011;37205;51.434;6.756;2023-12-14T04:01:22;50.35;;;26.95;;
50803;SDS011;37205;51.434;6.756;2023-12-14T04:03:48;55.90;;;27.55;;
50803;SDS011;37205;51.434;6.756;2023-12-14T04:06:14;55.58;;;30.17;;
50803;SDS011;37205;51.434;6.756;2023-12-14T04:08:40;54.63;;;27.25;;
50803;SDS011;37205;51.434;6.756;2023-12-14T04:11:06;49.25;;;27.20;;
50803;SDS011;37205;51.434;6.756;2023-12-14T04:13:32;49.40;;;25.30;;
50803;SDS011;37205;51.434;6.756;2023-12-14T04:15:58;51.67;;;26.80;;
50803;SDS011;37205;51.434;6.756;2023-12-14T04:18:23;48.85;;;24.58;;
50803;SDS011;37205;51.434;6.756;2023-12-14T04:20:49;50.35;;;25.65;;
50803;SDS011;37205;51.434;6.756;2023-12-14T04:23:15;45.03;;;24.80;;
50803;SDS011;37205;51.434;6.756;2023-12-14T04:25:41;48.50;;;24.25;;
50803;SDS011;37205;51.434;6.756;2023-12-14T04:28:06;51.13;;;26.60;;
50803;SDS011;37205;51.434;6.756;2023-12-14T04:30:32;46.60;;;25.05;;
50803;SDS011;37205;51.434;6.756;2023-12-14T04:32:57;45.28;;;23.90;;
50803;SDS011;37205;51.434;6.756;2023-12-14T04:35:23;46.08;;;24.73;;
50803;SDS011;37205;51.434;6.756;2023-12-14T04:37:48;47.95;;;28.33;;
50803;SDS011;37205;51.434;6.756;2023-12-14T04:40:14;46.28;;;26.00;;
50803;SDS011;37205;51.434;6.756;2023-12-14T04:42:40;44.72;;;24.83;;
50803;SDS011;37205;51.434;6.756;2023-12-14T04:45:06;48.53;;;24.73;;
50803;SDS011;37205;51.434;6.756;2023-12-14T04:47:32;46.17;;;24.25;;
50803;SDS011;37205;51.434;6.756;2023-12-14T04:49:57;41.85;;;22.95;;
50803;SDS011;37205;51.434;6.756;2023-12-14T04:52:23;41.10;;;23.05;;
50803;SDS011;37205;51.434;6.756;2023-12-14T04:54:49;42.83;;;24.17;;
50803;SDS011;37205;51.434;6.756;2023-12-14T04:57:14;39.33;;;21.50;;
50803;SDS011;37205;51.434;6.756;2023-12-14T04:59:42;39.75;;;22.60;;
50803;SDS011;37205;51.434;6.756;2023-12-14T05:02:08;36.53;;;20.92;;
50803;SDS011;37205;51.434;6.756;2023-12-14T05:04:33;35.10;;;20.35;;
50803;SDS011;37205;51.434;6.756;2023-12-14T05:06:59;34.97;;;20.75;;
50803;SDS011;37205;51.434;6.756;2023-12-14T05:09:24;42.08;;;21.45;;
50803;SDS011;37205;51.434;6.756;2023-12-14T05:11:50;38.55;;;20.45;;
50803;SDS011;37205;51.434;6.756;2023-12-14T05:14:15;35.50;;;19.65;;
50803;SDS011;37205;51.434;6.756;2023-12-14T05:16:41;37.70;;;20.55;;
50803;SDS011;37205;51.434;6.756;2023-12-14T05:19:06;38.63;;;21.95;;
50803;SDS011;37205;51.434;6.756;2023-12-14T05:21:32;37.38;;;20.70;;
50803;SDS011;37205;51.434;6.756;2023-12-14T05:23:57;40.95;;;21.35;;
50803;SDS011;37205;51.434;6.756;2023-12-14T05:26:24;37.30;;;22.05;;
50803;SDS011;37205;51.434;6.756;2023-12-14T05:28:49;37.72;;;21.38;;
50803;SDS011;37205;51.434;6.756;2023-12-14T05:31:15;40.60;;;22.90;;
50803;SDS011;37205;51.434;6.756;2023-12-14T05:33:40;45.10;;;24.52;;
50803;SDS011;37205;51.434;6.756;2023-12-14T05:36:06;44.55;;;23.55;;
50803;SDS011;37205;51.434;6.756;2023-12-14T05:38:35;38.97;;;21.90;;
50803;SDS011;37205;51.434;6.756;2023-12-14T05:41:04;38.75;;;22.73;;
50803;SDS011;37205;51.434;6.756;2023-12-14T05:43:30;37.10;;;21.52;;
50803;SDS011;37205;51.434;6.756;2023-12-14T05:45:55;37.78;;;21.98;;
50803;SDS011;37205;51.434;6.756;2023-12-14T05:48:21;39.08;;;22.08;;
50803;SDS011;37205;51.434;6.756;2023-12-14T05:50:47;36.10;;;19.35;;
50803;SDS011;37205;51.434;6.756;2023-12-14T05:53:12;39.65;;;21.73;;
50803;SDS011;37205;51.434;6.756;2023-12-14T05:55:38;35.38;;;19.48;;
50803;SDS011;37205;51.434;6.756;2023-12-14T05:58:05;38.20;;;21.70;;
50803;SDS011;37205;51.434;6.756;2023-12-14T06:00:32;39.38;;;20.63;;
50803;SDS011;37205;51.434;6.756;2023-12-14T06:03:00;36.60;;;19.55;;
50803;SDS011;37205;51.434;6.756;2023-12-14T06:05:25;38.40;;;21.08;;
50803;SDS011;37205;51.434;6.756;2023-12-14T06:07:51;37.40;;;20.60;;
50803;SDS011;37205;51.434;6.756;2023-12-14T06:10:16;35.20;;;19.48;;
50803;SDS011;37205;51.434;6.756;2023-12-14T06:12:42;33.67;;;19.52;;
50803;SDS011;37205;51.434;6.756;2023-12-14T06:15:08;35.17;;;20.25;;
50803;SDS011;37205;51.434;6.756;2023-12-14T06:17:34;39.65;;;21.05;;
50803;SDS011;37205;51.434;6.756;2023-12-14T06:20:02;40.28;;;21.73;;
50803;SDS011;37205;51.434;6.756;2023-12-14T06:22:29;39.92;;;22.70;;
50803;SDS011;37205;51.434;6.756;2023-12-14T06:24:54;46.95;;;25.15;;
50803;SDS011;37205;51.434;6.756;2023-12-14T06:27:20;44.30;;;24.60;;
50803;SDS011;37205;51.434;6.756;2023-12-14T06:29:48;43.88;;;25.27;;
50803;SDS011;37205;51.434;6.756;2023-12-14T06:32:13;47.35;;;24.27;;
50803;SDS011;37205;51.434;6.756;2023-12-14T06:34:39;44.95;;;23.90;;
50803;SDS011;37205;51.434;6.756;2023-12-14T06:37:04;50.28;;;25.60;;
50803;SDS011;37205;51.434;6.756;2023-12-14T06:39:30;58.17;;;27.30;;
50803;SDS011;37205;51.434;6.756;2023-12-14T06:41:56;58.40;;;27.27;;
50803;SDS011;37205;51.434;6.756;2023-12-14T06:44:21;47.03;;;24.70;;
50803;SDS011;37205;51.434;6.756;2023-12-14T06:46:47;39.47;;;20.08;;
50803;SDS011;37205;51.434;6.756;2023-12-14T06:49:12;51.03;;;25.35;;
50803;SDS011;37205;51.434;6.756;2023-12-14T06:51:38;48.90;;;25.65;;
50803;SDS011;37205;51.434;6.756;2023-12-14T06:54:03;49.67;;;28.48;;
50803;SDS011;37205;51.434;6.756;2023-12-14T06:56:29;54.92;;;28.35;;
50803;SDS011;37205;51.434;6.756;2023-12-14T06:58:54;62.15;;;30.10;;
50803;SDS011;37205;51.434;6.756;2023-12-14T07:01:20;57.25;;;27.40;;
50803;SDS011;37205;51.434;6.756;2023-12-14T07:03:47;61.60;;;30.85;;
50803;SDS011;37205;51.434;6.756;2023-12-14T07:06:14;66.68;;;31.50;;
50803;SDS011;37205;51.434;6.756;2023-12-14T07:08:41;64.18;;;31.85;;
50803;SDS011;37205;51.434;6.756;2023-12-14T07:11:09;64.15;;;31.95;;
50803;SDS011;37205;51.434;6.756;2023-12-14T07:13:36;61.53;;;33.25;;
50803;SDS011;37205;51.434;6.756;2023-12-14T07:16:08;64.50;;;32.72;;
50803;SDS011;37205;51.434;6.756;2023-12-14T07:18:38;62.85;;;31.75;;
50803;SDS011;37205;51.434;6.756;2023-12-14T07:21:06;55.33;;;30.40;;
50803;SDS011;37205;51.434;6.756;2023-12-14T07:23:33;56.80;;;30.02;;
50803;SDS011;37205;51.434;6.756;2023-12-14T07:25:59;63.00;;;32.85;;
50803;SDS011;37205;51.434;6.756;2023-12-14T07:28:25;60.35;;;32.15;;
50803;SDS011;37205;51.434;6.756;2023-12-14T07:30:51;57.95;;;30.85;;
50803;SDS011;37205;51.434;6.756;2023-12-14T07:33:16;51.60;;;26.85;;
50803;SDS011;37205;51.434;6.756;2023-12-14T07:35:42;47.58;;;26.52;;
50803;SDS011;37205;51.434;6.756;2023-12-14T07:38:09;51.40;;;29.08;;
50803;SDS011;37205;51.434;6.756;2023-12-14T07:40:35;51.28;;;28.52;;
50803;SDS011;37205;51.434;6.756;2023-12-14T07:43:00;50.65;;;28.17;;
50803;SDS011;37205;51.434;6.756;2023-12-14T07:45:26;51.50;;;28.95;;
50803;SDS011;37205;51.434;6.756;2023-12-14T07:47:52;59.70;;;31.20;;
50803;SDS011;37205;51.434;6.756;2023-12-14T07:50:17;50.85;;;29.33;;
50803;SDS011;37205;51.434;6.756;2023-12-14T07:52:44;51.75;;;29.02;;
50803;SDS011;37205;51.434;6.756;2023-12-14T07:55:09;49.97;;;29.05;;
50803;SDS011;37205;51.434;6.756;2023-12-14T07:57:35;53.85;;;30.75;;
50803;SDS011;37205;51.434;6.756;2023-12-14T08:00:00;50.88;;;28.88;;
50803;SDS011;37205;51.434;6.756;2023-12-14T08:02:26;50.20;;;28.95;;
50803;SDS011;37205;51.434;6.756;2023-12-14T08:04:51;51.00;;;29.48;;
50803;SDS011;37205;51.434;6.756;2023-12-14T08:07:17;49.50;;;29.02;;
50803;SDS011;37205;51.434;6.756;2023-12-14T08:09:45;49.58;;;27.90;;
50803;SDS011;37205;51.434;6.756;2023-12-14T08:12:11;48.88;;;28.63;;
50803;SDS011;37205;51.434;6.756;2023-12-14T08:14:36;52.30;;;29.70;;
50803;SDS011;37205;51.434;6.756;2023-12-14T08:17:08;51.35;;;29.92;;
50803;SDS011;37205;51.434;6.756;2023-12-14T08:19:34;54.15;;;29.27;;
50803;SDS011;37205;51.434;6.756;2023-12-14T08:21:59;53.50;;;28.77;;
50803;SDS011;37205;51.434;6.756;2023-12-14T08:24:25;54.03;;;30.02;;
50803;SDS011;37205;51.434;6.756;2023-12-14T08:26:51;50.20;;;28.60;;
50803;SDS011;37205;51.434;6.756;2023-12-14T08:29:16;51.20;;;28.42;;
50803;SDS011;37205;51.434;6.756;2023-12-14T08:31:42;50.78;;;29.33;;
50803;SDS011;37205;51.434;6.756;2023-12-14T08:34:07;46.70;;;27.17;;
50803;SDS011;37205;51.434;6.756;2023-12-14T08:36:33;46.70;;;28.10;;
50803;SDS011;37205;51.434;6.756;2023-12-14T08:38:58;46.42;;;26.83;;
50803;SDS011;37205;51.434;6.756;2023-12-14T08:41:24;44.13;;;26.67;;
50803;SDS011;37205;51.434;6.756;2023-12-14T08:43:50;44.72;;;24.38;;
50803;SDS011;37205;51.434;6.756;2023-12-14T08:46:15;44.08;;;25.65;;
50803;SDS011;37205;51.434;6.756;2023-12-14T08:48:41;43.72;;;26.63;;
50803;SDS011;37205;51.434;6.756;2023-12-14T08:51:06;40.33;;;25.17;;
50803;SDS011;37205;51.434;6.756;2023-12-14T08:53:32;40.97;;;26.08;;
50803;SDS011;37205;51.434;6.756;2023-12-14T08:55:57;41.92;;;26.27;;
50803;SDS011;37205;51.434;6.756;2023-12-14T08:58:23;38.50;;;24.63;;
50803;SDS011;37205;51.434;6.756;2023-12-14T09:00:49;36.72;;;22.42;;
50803;SDS011;37205;51.434;6.756;2023-12-14T09:03:18;39.45;;;23.67;;
50803;SDS011;37205;51.434;6.756;2023-12-14T09:05:44;37.13;;;22.55;;
50803;SDS011;37205;51.434;6.756;2023-12-14T09:08:10;39.47;;;22.77;;
50803;SDS011;37205;51.434;6.756;2023-12-14T09:10:35;39.95;;;24.50;;
50803;SDS011;37205;51.434;6.756;2023-12-14T09:13:01;38.20;;;23.98;;
50803;SDS011;37205;51.434;6.756;2023-12-14T09:15:29;36.25;;;22.85;;
50803;SDS011;37205;51.434;6.756;2023-12-14T09:17:58;36.03;;;22.73;;
50803;SDS011;37205;51.434;6.756;2023-12-14T09:20:23;33.70;;;21.63;;
50803;SDS011;37205;51.434;6.756;2023-12-14T09:22:49;35.20;;;22.65;;
50803;SDS011;37205;51.434;6.756;2023-12-14T09:25:15;34.33;;;21.40;;
50803;SDS011;37205;51.434;6.756;2023-12-14T09:27:41;34.30;;;21.58;;
50803;SDS011;37205;51.434;6.756;2023-12-14T09:30:07;31.23;;;19.80;;
50803;SDS011;37205;51.434;6.756;2023-12-14T09:32:33;33.58;;;20.90;;
50803;SDS011;37205;51.434;6.756;2023-12-14T09:34:59;30.88;;;19.70;;
50803;SDS011;37205;51.434;6.756;2023-12-14T09:37:24;32.45;;;20.42;;
50803;SDS011;37205;51.434;6.756;2023-12-14T09:39:50;31.23;;;19.85;;
50803;SDS011;37205;51.434;6.756;2023-12-14T09:42:17;31.30;;;20.23;;
50803;SDS011;37205;51.434;6.756;2023-12-14T09:44:45;28.63;;;18.90;;
50803;SDS011;37205;51.434;6.756;2023-12-14T09:47:15;26.92;;;18.83;;
50803;SDS011;37205;51.434;6.756;2023-12-14T09:49:41;27.13;;;18.90;;
50803;SDS011;37205;51.434;6.756;2023-12-14T09:52:08;26.55;;;18.73;;
50803;SDS011;37205;51.434;6.756;2023-12-14T09:54:34;26.67;;;18.23;;
50803;SDS011;37205;51.434;6.756;2023-12-14T09:57:00;25.50;;;17.63;;
50803;SDS011;37205;51.434;6.756;2023-12-14T09:59:25;26.05;;;17.10;;
50803;SDS011;37205;51.434;6.756;2023-12-14T10:01:51;22.98;;;16.13;;
50803;SDS011;37205;51.434;6.756;2023-12-14T10:04:17;25.38;;;17.30;;
50803;SDS011;37205;51.434;6.756;2023-12-14T10:06:45;26.98;;;17.27;;
50803;SDS011;37205;51.434;6.756;2023-12-14T10:09:12;27.45;;;17.95;;
50803;SDS011;37205;51.434;6.756;2023-12-14T10:11:42;27.63;;;17.60;;
50803;SDS011;37205;51.434;6.756;2023-12-14T10:14:41;27.33;;;17.45;;
50803;SDS011;37205;51.434;6.756;2023-12-14T10:19:56;24.90;;;17.42;;
50803;SDS011;37205;51.434;6.756;2023-12-14T10:22:22;24.88;;;16.73;;
50803;SDS011;37205;51.434;6.756;2023-12-14T10:24:47;23.77;;;15.88;;
50803;SDS011;37205;51.434;6.756;2023-12-14T10:27:14;25.17;;;16.15;;
50803;SDS011;37205;51.434;6.756;2023-12-14T10:29:41;25.05;;;15.45;;
50803;SDS011;37205;51.434;6.756;2023-12-14T10:32:10;24.70;;;15.63;;
50803;SDS011;37205;51.434;6.756;2023-12-14T10:34:36;23.40;;;16.08;;
50803;SDS011;37205;51.434;6.756;2023-12-14T10:37:04;21.20;;;12.90;;
50803;SDS011;37205;51.434;6.756;2023-12-14T10:39:33;24.83;;;15.63;;
50803;SDS011;37205;51.434;6.756;2023-12-14T10:42:01;22.90;;;14.63;;
50803;SDS011;37205;51.434;6.756;2023-12-14T10:44:28;25.63;;;15.98;;
50803;SDS011;37205;51.434;6.756;2023-12-14T10:46:58;24.73;;;16.00;;
50803;SDS011;37205;51.434;6.756;2023-12-14T10:49:24;24.60;;;15.70;;
50803;SDS011;37205;51.434;6.756;2023-12-14T10:51:54;26.05;;;15.50;;
50803;SDS011;37205;51.434;6.756;2023-12-14T10:54:22;24.67;;;15.20;;
50803;SDS011;37205;51.434;6.756;2023-12-14T10:56:50;26.20;;;17.00;;
50803;SDS011;37205;51.434;6.756;2023-12-14T10:59:24;25.75;;;15.50;;
50803;SDS011;37205;51.434;6.756;2023-12-14T11:01:54;22.35;;;14.27;;
50803;SDS011;37205;51.434;6.756;2023-12-14T11:04:22;24.77;;;15.95;;
50803;SDS011;37205;51.434;6.756;2023-12-14T11:06:48;22.40;;;14.73;;
50803;SDS011;37205;51.434;6.756;2023-12-14T11:09:16;22.38;;;14.63;;
50803;SDS011;37205;51.434;6.756;2023-12-14T11:14:18;19.92;;;12.50;;
50803;SDS011;37205;51.434;6.756;2023-12-14T11:16:45;21.85;;;13.05;;
50803;SDS011;37205;51.434;6.756;2023-12-14T11:24:20;19.13;;;12.07;;
50803;SDS011;37205;51.434;6.756;2023-12-14T11:26:46;20.10;;;12.60;;
50803;SDS011;37205;51.434;6.756;2023-12-14T11:29:14;21.48;;;11.90;;
50803;SDS011;37205;51.434;6.756;2023-12-14T11:31:40;22.58;;;13.63;;
50803;SDS011;37205;51.434;6.756;2023-12-14T11:34:06;19.15;;;11.32;;
50803;SDS011;37205;51.434;6.756;2023-12-14T11:36:32;17.17;;;10.00;;
50803;SDS011;37205;51.434;6.756;2023-12-14T11:38:58;20.60;;;12.00;;
50803;SDS011;37205;51.434;6.756;2023-12-14T11:41:23;18.55;;;11.98;;
50803;SDS011;37205;51.434;6.756;2023-12-14T11:43:50;26.95;;;13.13;;
50803;SDS011;37205;51.434;6.756;2023-12-14T11:46:16;17.27;;;10.90;;
50803;SDS011;37205;51.434;6.756;2023-12-14T11:48:45;16.67;;;10.60;;
50803;SDS011;37205;51.434;6.756;2023-12-14T11:51:13;14.75;;;9.70;;
50803;SDS011;37205;51.434;6.756;2023-12-14T11:53:40;14.88;;;10.68;;
50803;SDS011;37205;51.434;6.756;2023-12-14T11:56:07;12.30;;;8.88;;
50803;SDS011;37205;51.434;6.756;2023-12-14T11:58:34;21.13;;;12.68;;
50803;SDS011;37205;51.434;6.756;2023-12-14T12:01:12;15.10;;;10.27;;
50803;SDS011;37205;51.434;6.756;2023-12-14T12:03:45;16.25;;;9.65;;
50803;SDS011;37205;51.434;6.756;2023-12-14T12:06:24;15.05;;;9.25;;
50803;SDS011;37205;51.434;6.756;2023-12-14T12:08:52;14.00;;;9.10;;
50803;SDS011;37205;51.434;6.756;2023-12-14T12:11:19;14.68;;;10.30;;
50803;SDS011;37205;51.434;6.756;2023-12-14T12:13:50;16.10;;;10.20;;
50803;SDS011;37205;51.434;6.756;2023-12-14T12:16:22;15.27;;;10.38;;
50803;SDS011;37205;51.434;6.756;2023-12-14T12:18:48;16.50;;;10.60;;
50803;SDS011;37205;51.434;6.756;2023-12-14T12:21:15;17.90;;;12.63;;
50803;SDS011;37205;51.434;6.756;2023-12-14T12:23:41;18.00;;;11.23;;
50803;SDS011;37205;51.434;6.756;2023-12-14T12:26:07;21.15;;;14.00;;
50803;SDS011;37205;51.434;6.756;2023-12-14T12:28:33;19.67;;;12.27;;
50803;SDS011;37205;51.434;6.756;2023-12-14T12:30:58;19.92;;;12.48;;
50803;SDS011;37205;51.434;6.756;2023-12-14T12:33:25;22.75;;;12.55;;
50803;SDS011;37205;51.434;6.756;2023-12-14T12:35:51;22.63;;;15.40;;
50803;SDS011;37205;51.434;6.756;2023-12-14T12:38:19;23.05;;;12.68;;
50803;SDS011;37205;51.434;6.756;2023-12-14T12:40:45;25.23;;;14.85;;
50803;SDS011;37205;51.434;6.756;2023-12-14T12:43:10;24.80;;;15.02;;
50803;SDS011;37205;51.434;6.756;2023-12-14T12:45:37;23.95;;;13.38;;
50803;SDS011;37205;51.434;6.756;2023-12-14T12:48:03;21.27;;;12.73;;
50803;SDS011;37205;51.434;6.756;2023-12-14T12:50:31;22.38;;;12.77;;
50803;SDS011;37205;51.434;6.756;2023-12-14T12:52:56;20.42;;;12.50;;
50803;SDS011;37205;51.434;6.756;2023-12-14T12:55:22;18.77;;;10.85;;
50803;SDS011;37205;51.434;6.756;2023-12-14T12:57:48;16.00;;;9.73;;
50803;SDS011;37205;51.434;6.756;2023-12-14T13:00:14;18.20;;;11.27;;
50803;SDS011;37205;51.434;6.756;2023-12-14T13:02:40;22.38;;;12.02;;
50803;SDS011;37205;51.434;6.756;2023-12-14T13:05:07;23.73;;;17.33;;
50803;SDS011;37205;51.434;6.756;2023-12-14T13:07:34;20.75;;;13.70;;
50803;SDS011;37205;51.434;6.756;2023-12-14T13:10:01;35.42;;;20.17;;
50803;SDS011;37205;51.434;6.756;2023-12-14T13:12:34;17.75;;;11.35;;
50803;SDS011;37205;51.434;6.756;2023-12-14T13:15:00;20.50;;;12.68;;
50803;SDS011;37205;51.434;6.756;2023-12-14T13:17:25;17.65;;;10.93;;
50803;SDS011;37205;51.434;6.756;2023-12-14T13:19:51;19.55;;;11.05;;
50803;SDS011;37205;51.434;6.756;2023-12-14T13:22:17;16.70;;;10.30;;
50803;SDS011;37205;51.434;6.756;2023-12-14T13:24:43;14.20;;;10.45;;
50803;SDS011;37205;51.434;6.756;2023-12-14T13:27:09;17.15;;;9.80;;
50803;SDS011;37205;51.434;6.756;2023-12-14T13:29:35;14.57;;;9.55;;
50803;SDS011;37205;51.434;6.756;2023-12-14T13:32:00;17.65;;;10.35;;
50803;SDS011;37205;51.434;6.756;2023-12-14T13:34:27;14.90;;;9.45;;
50803;SDS011;37205;51.434;6.756;2023-12-14T13:36:55;13.05;;;8.88;;
50803;SDS011;37205;51.434;6.756;2023-12-14T13:39:21;14.75;;;9.18;;
50803;SDS011;37205;51.434;6.756;2023-12-14T13:41:47;15.82;;;9.75;;
50803;SDS011;37205;51.434;6.756;2023-12-14T13:44:13;15.20;;;8.90;;
50803;SDS011;37205;51.434;6.756;2023-12-14T13:46:40;14.68;;;9.65;;
50803;SDS011;37205;51.434;6.756;2023-12-14T13:49:06;17.15;;;10.32;;
50803;SDS011;37205;51.434;6.756;2023-12-14T13:51:31;18.55;;;9.95;;
50803;SDS011;37205;51.434;6.756;2023-12-14T13:53:57;18.05;;;9.95;;
50803;SDS011;37205;51.434;6.756;2023-12-14T13:56:22;14.68;;;9.98;;
50803;SDS011;37205;51.434;6.756;2023-12-14T13:58:48;16.25;;;9.27;;
50803;SDS011;37205;51.434;6.756;2023-12-14T14:01:14;17.35;;;10.70;;
50803;SDS011;37205;51.434;6.756;2023-12-14T14:03:40;15.73;;;9.65;;
50803;SDS011;37205;51.434;6.756;2023-12-14T14:06:07;15.73;;;9.07;;
50803;SDS011;37205;51.434;6.756;2023-12-14T14:08:33;17.15;;;9.75;;
50803;SDS011;37205;51.434;6.756;2023-12-14T14:11:00;15.48;;;9.93;;
50803;SDS011;37205;51.434;6.756;2023-12-14T14:13:26;15.00;;;9.60;;
50803;SDS011;37205;51.434;6.756;2023-12-14T14:15:51;17.65;;;10.38;;
50803;SDS011;37205;51.434;6.756;2023-12-14T14:18:17;15.80;;;9.90;;
50803;SDS011;37205;51.434;6.756;2023-12-14T14:20:43;16.77;;;9.65;;
50803;SDS011;37205;51.434;6.756;2023-12-14T14:23:08;15.18;;;9.52;;
50803;SDS011;37205;51.434;6.756;2023-12-14T14:25:34;13.60;;;9.20;;
50803;SDS011;37205;51.434;6.756;2023-12-14T14:28:00;15.68;;;9.85;;